Monroe Regional Airport Monroe US
ICAO: KMLU
IATA: MLU
Category: Large
Scheduled Services: Yes

Elevation: 79 ft
TransAlt. 18000 ft.

Airport Communications:
APP/DEP:118.15
ATIS:125.05
CLNC DEL:121.65
CTAF:118.9
GND:121.9
DE RIDDER RDO:122.25
TWR:118.9
UNICOM:122.95

KMLU Zoom In..

If you have problems with the map follow the link
https://www.worldairports.se/pages/airport.php?
ICAO=KMLU

Runways:

(A) RW 04 length 7505 ft width 150 ft
ILS 109.50 / hdg 42

(B) RW 14 length 4999 ft width 150 ft
---- / hdg 137

(C) RW 18 length 5001 ft width 150 ft
---- / hdg 177

(D) RW 22 length 7505 ft width 150 ft
ILS 109.50 / hdg 222

(E) RW 32 length 4999 ft width 150 ft
---- / hdg 317

(F) RW 36 length 5001 ft width 150 ft
---- / hdg 357

Location; KMLU
Day. 16 / Time. 11.53 Zulu
* Altimeter: 30.23
* Temperature: 01° c. 33.8°f.
* Wind from: 000° Speed 00 kn.
Dewpoint: 00° c.
Visibility: 10 Statute Miles.
Clouds: Clear (automated report).

KMLU 161153Z 00000KT 10SM CLR 01/00 A3023 RMK AO2 SLP235 T00060000 10039 20000 53000


Wind - Calm.

 
 
jpsmedia.com for Web Design worldairports.se 2018   terms of use